KBPI/BPI METAR and TAF weather

Enter ICAO airport designator
Station Type Date Time Source
KBPI METAR 2022/08/16 17:53 UTC NOAA

KBPI 161753Z AUTO 25006KT 10SM CLR 23/08 A3036 RMK AO2 SLP176 T02330083 10239 20083 57004


Station Type Date Time Source
KBPI Decoded METAR 2022/08/16 17:53 UTC NOAA

BIG PINEY-MARBLETON AIRPORT, WY, United States (KBPI) 42-35N 110-06W 2117M
Aug 16, 2022 - 01:53 PM EDT / 2022.08.16 1753 UTC
Wind: from the WSW (250 degrees) at 7 MPH (6 KT):0
Visibility: 10 mile(s):0
Sky conditions: clear
Temperature: 73.9 F (23.3 C)
Dew Point: 46.9 F (8.3 C)
Relative Humidity: 38%
Pressure (altimeter): 30.36 in. Hg (1028 hPa)
Pressure tendency: 0.01 inches (0.4 hPa) lower than three hours ago
ob: KBPI 161753Z AUTO 25006KT 10SM CLR 23/08 A3036 RMK AO2 SLP176 T02330083 10239 20083 57004
cycle: 18

Station Type Date Time Source
KBPI TAF 2022/08/16 18:22 UTC NOAA

TAF KBPI 161720Z 1618/1718 25011KT P6SM SKC
FM162100 09018G26KT P6SM SCT100
FM170200 08007KT P6SM FEW120
FM170500 34007KT P6SM FEW200
FM171300 VRB05KT P6SM SKC

Example: see airport list